createdAt,value
2022-12-15T00:09:54.378Z,3.60
2022-12-15T00:12:58.055Z,3.49
2022-12-15T00:15:58.274Z,3.43
2022-12-15T00:19:00.402Z,3.40
2022-12-15T00:21:50.317Z,3.16
2022-12-15T00:24:45.467Z,3.17
2022-12-15T00:27:50.483Z,2.44
2022-12-15T00:30:39.176Z,2.53
2022-12-15T00:33:54.945Z,2.42
2022-12-15T00:36:52.377Z,2.39
2022-12-15T00:39:23.448Z,2.22
2022-12-15T00:41:51.023Z,1.95
2022-12-15T00:44:20.810Z,2.21
2022-12-15T00:46:54.799Z,2.12
2022-12-15T00:49:44.787Z,2.25
2022-12-15T00:52:32.278Z,2.19
2022-12-15T00:55:20.055Z,2.48
2022-12-15T00:58:06.354Z,2.44
2022-12-15T01:01:31.073Z,2.68
2022-12-15T01:04:17.170Z,2.35
2022-12-15T01:07:33.038Z,2.66
2022-12-15T01:10:19.734Z,2.69
2022-12-15T01:13:32.929Z,2.58
2022-12-15T01:16:19.488Z,2.33
2022-12-15T01:19:36.053Z,2.38
2022-12-15T01:22:04.047Z,2.18
2022-12-15T01:24:31.639Z,2.14
2022-12-15T01:26:59.345Z,2.20
2022-12-15T01:29:28.022Z,2.12
2022-12-15T01:31:55.886Z,2.30
2022-12-15T01:34:23.550Z,2.43
2022-12-15T01:36:51.180Z,2.52
2022-12-15T01:39:18.819Z,2.56
2022-12-15T01:41:46.593Z,2.59
2022-12-15T01:44:22.764Z,2.73
2022-12-15T01:47:15.425Z,2.75
2022-12-15T01:49:47.794Z,2.67
2022-12-15T01:52:17.426Z,3.05
2022-12-15T01:54:57.976Z,3.07
2022-12-15T01:57:32.204Z,2.93
2022-12-15T02:00:02.745Z,2.89
2022-12-15T02:02:39.825Z,3.11
2022-12-15T02:05:09.044Z,2.71
2022-12-15T02:07:36.664Z,3.04
2022-12-15T02:10:07.515Z,3.21
2022-12-15T02:12:53.423Z,3.16
2022-12-15T02:15:55.788Z,3.38
2022-12-15T02:18:35.437Z,3.31
2022-12-15T02:21:11.213Z,3.45
2022-12-15T02:24:19.588Z,3.51
2022-12-15T02:26:49.875Z,3.56
2022-12-15T02:29:29.348Z,3.34
2022-12-15T02:32:17.050Z,3.69
2022-12-15T02:34:50.368Z,3.77
2022-12-15T02:37:24.430Z,3.77
2022-12-15T02:39:52.114Z,3.61
2022-12-15T02:42:20.104Z,3.25
2022-12-15T02:44:54.354Z,3.42
2022-12-15T02:47:32.688Z,3.81
2022-12-15T02:50:09.342Z,3.87
2022-12-15T02:52:58.510Z,3.64
2022-12-15T02:55:50.263Z,3.47
2022-12-15T02:58:33.228Z,3.76
2022-12-15T03:01:08.608Z,3.58
2022-12-15T03:03:38.977Z,3.95
2022-12-15T03:06:09.849Z,3.87
2022-12-15T03:08:37.493Z,3.65
2022-12-15T03:11:05.470Z,3.90
2022-12-15T03:13:33.444Z,3.77
2022-12-15T03:16:01.698Z,3.88
2022-12-15T03:18:30.002Z,3.46
2022-12-15T03:20:57.698Z,3.20
2022-12-15T03:23:51.111Z,3.27
2022-12-15T03:26:18.797Z,3.19
2022-12-15T03:28:50.711Z,3.25
2022-12-15T03:31:18.353Z,3.38
2022-12-15T03:33:46.046Z,3.41
2022-12-15T03:36:13.662Z,3.29
2022-12-15T03:38:41.302Z,3.41
2022-12-15T03:41:08.905Z,3.33
2022-12-15T03:43:36.506Z,3.35
2022-12-15T03:46:04.189Z,3.45
2022-12-15T03:48:31.868Z,3.27
2022-12-15T03:51:05.605Z,3.50
2022-12-15T03:53:33.463Z,3.66
2022-12-15T03:56:01.319Z,3.29
2022-12-15T03:58:28.902Z,3.44
2022-12-15T04:00:56.572Z,3.49
2022-12-15T04:03:29.067Z,3.63
2022-12-15T04:05:56.969Z,3.58
2022-12-15T04:08:51.198Z,3.29
2022-12-15T04:11:19.759Z,3.66
2022-12-15T04:14:13.941Z,3.86
2022-12-15T04:16:41.561Z,4.03
2022-12-15T04:19:29.139Z,3.75
2022-12-15T04:21:58.206Z,3.94
2022-12-15T04:24:44.656Z,3.51
2022-12-15T04:27:30.871Z,3.66
2022-12-15T04:30:16.619Z,3.65
2022-12-15T04:33:04.066Z,3.37
2022-12-15T04:35:53.016Z,3.38
2022-12-15T04:38:47.118Z,3.89
2022-12-15T04:41:39.318Z,3.71
2022-12-15T04:44:26.033Z,3.93
2022-12-15T04:47:12.420Z,3.71
2022-12-15T04:49:58.636Z,3.93
2022-12-15T04:52:44.851Z,4.01
2022-12-15T04:55:31.170Z,4.13
2022-12-15T04:58:17.746Z,4.09
2022-12-15T05:01:04.149Z,4.18
2022-12-15T05:03:50.482Z,4.13
2022-12-15T05:06:37.103Z,4.21
2022-12-15T05:09:23.438Z,3.93
2022-12-15T05:12:10.071Z,4.11
2022-12-15T05:14:56.542Z,4.10
2022-12-15T05:17:42.850Z,3.90
2022-12-15T05:20:29.230Z,3.93
2022-12-15T05:23:16.137Z,3.91
2022-12-15T05:26:03.019Z,4.15
2022-12-15T05:28:49.435Z,4.02
2022-12-15T05:31:36.004Z,3.91
2022-12-15T05:34:05.804Z,3.75
2022-12-15T05:36:33.887Z,3.76
2022-12-15T05:39:01.597Z,3.46
2022-12-15T05:41:29.377Z,3.65
2022-12-15T05:43:56.954Z,3.28
2022-12-15T05:46:24.969Z,3.27
2022-12-15T05:48:54.060Z,3.60
2022-12-15T05:51:22.059Z,3.79
2022-12-15T05:53:49.794Z,4.00
2022-12-15T05:56:35.705Z,3.98
2022-12-15T05:59:04.028Z,4.10
2022-12-15T06:01:33.199Z,4.07
2022-12-15T06:04:04.513Z,3.99
2022-12-15T06:06:34.220Z,4.05
2022-12-15T06:09:04.178Z,3.77
2022-12-15T06:11:34.331Z,3.90
2022-12-15T06:14:01.977Z,4.03
2022-12-15T06:16:30.748Z,3.88
2022-12-15T06:19:01.749Z,3.74
2022-12-15T06:21:35.499Z,3.78
2022-12-15T06:24:05.053Z,3.99
2022-12-15T06:26:41.545Z,4.17
2022-12-15T06:29:11.866Z,3.67
2022-12-15T06:31:45.399Z,3.41
2022-12-15T06:34:15.244Z,3.70
2022-12-15T06:36:43.216Z,3.34
2022-12-15T06:39:13.743Z,3.62
2022-12-15T06:41:42.482Z,3.94
2022-12-15T06:44:14.005Z,4.28
2022-12-15T06:46:41.654Z,4.01
2022-12-15T06:49:09.377Z,4.21
2022-12-15T06:51:37.215Z,4.35
2022-12-15T06:54:04.804Z,3.93
2022-12-15T06:56:36.228Z,3.93
2022-12-15T06:59:05.696Z,3.86
2022-12-15T07:01:33.568Z,4.08
2022-12-15T07:04:02.980Z,3.77
2022-12-15T07:06:36.725Z,3.52
2022-12-15T07:09:07.859Z,3.73
2022-12-15T07:11:35.698Z,3.72
2022-12-15T07:14:03.289Z,4.03
2022-12-15T07:16:31.065Z,3.96
2022-12-15T07:18:58.581Z,3.52
2022-12-15T07:21:26.406Z,3.64
2022-12-15T07:23:56.760Z,3.72
2022-12-15T07:26:24.870Z,4.02
2022-12-15T07:28:54.029Z,4.43
2022-12-15T07:31:22.361Z,4.29
2022-12-15T07:33:52.219Z,4.14
2022-12-15T07:36:20.462Z,4.36
2022-12-15T07:38:49.896Z,4.29
2022-12-15T07:41:20.245Z,4.66
2022-12-15T07:43:48.406Z,4.68
2022-12-15T07:46:16.617Z,4.29
2022-12-15T07:48:44.200Z,4.40
2022-12-15T07:51:20.294Z,4.23
2022-12-15T07:53:49.985Z,4.44
2022-12-15T07:56:18.752Z,4.61
2022-12-15T07:58:46.630Z,4.57
2022-12-15T08:01:15.552Z,4.74
2022-12-15T08:03:43.610Z,4.93
2022-12-15T08:06:13.212Z,4.74
2022-12-15T08:08:40.929Z,5.00
2022-12-15T08:11:10.752Z,4.95
2022-12-15T08:16:28.420Z,5.24
2022-12-15T08:18:58.922Z,5.29
2022-12-15T08:21:26.365Z,5.25
2022-12-15T08:23:55.199Z,5.20
2022-12-15T08:26:28.501Z,4.61
2022-12-15T08:29:11.722Z,5.23
2022-12-15T08:31:45.549Z,5.09
2022-12-15T08:34:13.102Z,4.76
2022-12-15T08:36:40.531Z,5.32
2022-12-15T08:39:07.994Z,5.13
2022-12-15T08:41:37.226Z,5.14
2022-12-15T08:44:04.818Z,5.55
2022-12-15T08:46:36.447Z,5.72
2022-12-15T08:49:04.584Z,5.52
2022-12-15T08:51:33.267Z,5.54
2022-12-15T08:54:01.563Z,5.25
2022-12-15T08:56:29.391Z,4.92
2022-12-15T08:59:01.856Z,4.75
2022-12-15T09:01:39.500Z,5.01
2022-12-15T09:04:08.061Z,5.05
2022-12-15T09:06:36.880Z,4.64
2022-12-15T09:09:08.188Z,4.89
2022-12-15T09:11:35.948Z,5.11
2022-12-15T09:14:04.074Z,4.89
2022-12-15T09:16:31.674Z,5.19
2022-12-15T09:19:00.480Z,5.44
2022-12-15T09:21:30.280Z,5.12
2022-12-15T09:24:02.745Z,5.40
2022-12-15T09:26:33.085Z,5.24
2022-12-15T09:29:02.119Z,5.55
2022-12-15T09:31:36.474Z,5.82
2022-12-15T09:34:03.925Z,5.21
2022-12-15T09:36:35.554Z,5.46
2022-12-15T09:39:03.184Z,5.38
2022-12-15T09:41:33.577Z,5.41
2022-12-15T09:44:06.637Z,5.51
2022-12-15T09:46:49.933Z,5.21
2022-12-15T09:49:53.277Z,5.44
2022-12-15T09:52:23.984Z,5.04
2022-12-15T09:54:51.585Z,5.69
2022-12-15T09:57:27.830Z,5.34
2022-12-15T10:00:08.067Z,5.21
2022-12-15T10:03:12.997Z,5.59
2022-12-15T10:06:21.525Z,5.66
2022-12-15T10:08:55.996Z,5.97
2022-12-15T10:11:57.087Z,6.14
2022-12-15T10:14:32.651Z,6.22
2022-12-15T10:17:06.931Z,6.24
2022-12-15T10:19:52.152Z,6.12
2022-12-15T10:22:40.560Z,6.54
2022-12-15T10:25:15.088Z,6.47
2022-12-15T10:28:05.237Z,6.46
2022-12-15T10:30:34.352Z,6.38
2022-12-15T10:33:19.477Z,6.51
2022-12-15T10:35:47.540Z,6.26
2022-12-15T10:38:33.208Z,6.02
2022-12-15T10:41:19.136Z,6.02
2022-12-15T10:43:50.294Z,6.18
2022-12-15T10:46:20.717Z,5.87
2022-12-15T10:48:54.277Z,5.64
2022-12-15T10:51:22.010Z,5.74
2022-12-15T10:54:06.486Z,6.14
2022-12-15T10:56:34.413Z,6.01
2022-12-15T10:59:21.096Z,6.06
2022-12-15T11:01:48.847Z,6.43
2022-12-15T11:04:32.559Z,6.65
2022-12-15T11:07:02.854Z,6.71
2022-12-15T11:09:36.746Z,6.09
2022-12-15T11:12:51.450Z,6.44
2022-12-15T11:15:21.658Z,6.41
2022-12-15T11:18:03.150Z,6.34
2022-12-15T11:20:38.734Z,6.71
2022-12-15T11:23:12.034Z,6.68
2022-12-15T11:25:45.408Z,6.56
2022-12-15T11:28:21.961Z,6.23
2022-12-15T11:31:22.991Z,5.99
2022-12-15T11:33:55.183Z,6.08
2022-12-15T11:36:45.433Z,6.06
2022-12-15T11:39:40.537Z,6.15
2022-12-15T11:42:22.613Z,6.33
2022-12-15T11:45:14.807Z,6.35
2022-12-15T11:47:49.968Z,6.45
2022-12-15T11:50:39.944Z,5.99
2022-12-15T11:53:19.646Z,6.07
2022-12-15T11:56:05.754Z,6.09
2022-12-15T11:58:54.477Z,5.98
2022-12-15T12:01:34.166Z,6.37
2022-12-15T12:04:16.512Z,6.41
2022-12-15T12:07:05.784Z,6.33
2022-12-15T12:09:36.603Z,6.44
2022-12-15T12:12:21.250Z,6.45
2022-12-15T12:14:50.619Z,6.49
2022-12-15T12:17:36.444Z,6.61
2022-12-15T12:20:14.663Z,6.24
2022-12-15T12:22:53.153Z,6.07
2022-12-15T12:25:26.446Z,6.09
2022-12-15T12:28:20.750Z,6.06
2022-12-15T12:33:41.379Z,6.18
2022-12-15T12:36:12.345Z,6.09
2022-12-15T12:38:50.948Z,6.03
2022-12-15T12:41:21.648Z,6.37
2022-12-15T12:43:55.586Z,6.67
2022-12-15T12:46:50.652Z,6.53
2022-12-15T12:49:32.745Z,6.70
2022-12-15T12:52:04.216Z,6.39
2022-12-15T12:54:34.547Z,6.31
2022-12-15T12:57:22.828Z,6.15
2022-12-15T13:00:00.809Z,6.47
2022-12-15T13:02:29.455Z,6.57
2022-12-15T13:05:29.475Z,6.67
2022-12-15T13:08:05.736Z,6.88
2022-12-15T13:10:38.733Z,6.94
2022-12-15T13:13:27.786Z,6.83
2022-12-15T13:16:10.246Z,6.95
2022-12-15T13:18:56.269Z,6.91
2022-12-15T13:21:41.983Z,6.76
2022-12-15T13:29:02.133Z,6.81
2022-12-15T13:32:17.432Z,7.07
2022-12-15T13:39:35.604Z,6.32
2022-12-15T13:46:49.323Z,6.35
2022-12-15T13:57:38.949Z,6.44
2022-12-15T14:01:50.873Z,6.30
2022-12-15T14:05:05.330Z,6.29
2022-12-15T14:34:20.188Z,6.53
2022-12-15T14:45:01.652Z,6.11
2022-12-15T14:47:34.372Z,6.03
2022-12-15T14:50:09.834Z,5.84
2022-12-15T14:52:40.331Z,5.83
2022-12-15T14:59:57.914Z,5.81
2022-12-15T15:02:38.602Z,5.96
2022-12-15T15:03:12.732Z,6.39
2022-12-15T15:05:24.485Z,6.02
2022-12-15T15:08:03.471Z,5.79
2022-12-15T15:10:36.181Z,5.82
2022-12-15T15:13:25.874Z,5.79
2022-12-15T15:15:57.461Z,5.95
2022-12-15T15:18:35.574Z,5.91
2022-12-15T15:21:08.002Z,5.97
2022-12-15T15:23:42.800Z,5.79
2022-12-15T15:26:11.007Z,5.85
2022-12-15T15:28:45.171Z,5.86
2022-12-15T15:31:40.869Z,5.92
2022-12-15T15:34:11.736Z,6.07
2022-12-15T15:36:40.296Z,6.06
2022-12-15T15:39:20.357Z,6.05
2022-12-15T15:41:48.639Z,6.16
2022-12-15T15:44:30.302Z,5.98
2022-12-15T15:46:58.676Z,5.31
2022-12-15T15:49:34.565Z,5.54
2022-12-15T15:52:12.290Z,5.75
2022-12-15T15:54:52.469Z,6.04
2022-12-15T15:57:24.165Z,5.99
2022-12-15T15:59:52.040Z,5.97
2022-12-15T16:02:20.321Z,5.94
2022-12-15T16:04:54.234Z,6.02
2022-12-15T16:07:26.114Z,6.10
2022-12-15T16:11:09.033Z,5.78
2022-12-15T16:13:36.914Z,5.84
2022-12-15T16:16:06.165Z,5.91
2022-12-15T16:18:37.609Z,6.32
2022-12-15T16:21:16.199Z,6.47
2022-12-15T16:24:17.208Z,6.28
2022-12-15T16:26:49.621Z,6.32
2022-12-15T16:29:20.845Z,6.16
2022-12-15T16:31:51.885Z,6.01
2022-12-15T16:34:22.004Z,6.20
2022-12-15T16:36:56.220Z,6.35
2022-12-15T16:39:34.866Z,6.24
2022-12-15T16:42:12.346Z,6.25
2022-12-15T16:44:46.798Z,6.58
2022-12-15T16:47:15.039Z,6.34
2022-12-15T16:49:46.021Z,5.97
2022-12-15T16:52:21.756Z,5.81
2022-12-15T16:54:52.271Z,5.97
2022-12-15T16:57:20.317Z,6.03
2022-12-15T16:59:52.867Z,5.73
2022-12-15T17:02:29.851Z,5.68
2022-12-15T17:05:03.282Z,5.89
2022-12-15T17:07:52.479Z,6.07
2022-12-15T17:10:50.663Z,5.98
2022-12-15T17:13:39.220Z,5.96
2022-12-15T17:16:14.627Z,6.11
2022-12-15T17:19:19.263Z,5.92
2022-12-15T17:23:14.042Z,5.96
2022-12-15T17:30:56.046Z,6.12
2022-12-15T17:34:29.864Z,6.15
2022-12-15T17:37:03.574Z,6.19
2022-12-15T17:39:34.268Z,6.17
2022-12-15T17:42:09.594Z,6.16
2022-12-15T17:44:38.880Z,6.26
2022-12-15T17:47:11.144Z,6.28
2022-12-15T17:49:42.133Z,6.22
2022-12-15T17:52:34.703Z,6.36
2022-12-15T17:58:27.255Z,6.44
2022-12-15T18:00:59.663Z,6.44
2022-12-15T18:03:37.211Z,6.54
2022-12-15T18:06:15.602Z,6.12
2022-12-15T18:08:54.847Z,6.25
2022-12-15T18:11:22.911Z,6.28
2022-12-15T18:13:55.015Z,5.93
2022-12-15T18:16:22.939Z,5.96
2022-12-15T18:18:56.503Z,5.70
2022-12-15T18:21:25.238Z,5.49
2022-12-15T18:23:54.233Z,5.58
2022-12-15T18:26:21.934Z,5.69
2022-12-15T18:28:50.016Z,5.72
2022-12-15T18:31:28.165Z,5.66
2022-12-15T18:34:00.877Z,5.88
2022-12-15T18:36:32.720Z,5.95
2022-12-15T18:39:10.867Z,5.95
2022-12-15T18:41:38.740Z,6.06
2022-12-15T18:44:09.884Z,5.98
2022-12-15T18:46:37.986Z,5.88
2022-12-15T18:49:23.173Z,5.80
2022-12-15T18:51:52.183Z,5.89
2022-12-15T18:54:23.571Z,5.76
2022-12-15T18:56:51.775Z,5.93
2022-12-15T18:59:19.929Z,6.03
2022-12-15T19:01:49.502Z,5.82
2022-12-15T19:04:18.467Z,6.04
2022-12-15T19:06:46.337Z,5.92
2022-12-15T19:09:40.888Z,6.15
2022-12-15T19:12:18.892Z,6.29
2022-12-15T19:14:55.113Z,6.22
2022-12-15T19:17:42.998Z,5.91
2022-12-15T19:20:38.337Z,6.22
2022-12-15T19:23:07.348Z,6.32
2022-12-15T19:25:37.621Z,6.36
2022-12-15T19:28:12.851Z,6.10
2022-12-15T19:30:42.429Z,6.20
2022-12-15T19:33:11.838Z,6.00
2022-12-15T19:35:41.836Z,5.94
2022-12-15T19:38:40.247Z,5.98
2022-12-15T19:41:14.940Z,5.78
2022-12-15T19:43:43.109Z,5.91
2022-12-15T19:46:32.457Z,6.03
2022-12-15T19:49:01.380Z,6.00
2022-12-15T19:51:53.688Z,5.96
2022-12-15T19:54:23.070Z,5.81
2022-12-15T19:56:53.120Z,5.79
2022-12-15T19:59:26.027Z,5.75
2022-12-15T20:01:54.049Z,5.82
2022-12-15T20:04:24.215Z,5.74
2022-12-15T20:06:52.243Z,6.03
2022-12-15T20:09:20.195Z,6.12
2022-12-15T20:11:50.086Z,6.34
2022-12-15T20:14:18.261Z,6.20
2022-12-15T20:16:46.475Z,6.31
2022-12-15T20:19:14.335Z,6.41
2022-12-15T20:21:42.221Z,6.29
2022-12-15T20:24:15.969Z,5.71
2022-12-15T20:26:45.249Z,5.55
2022-12-15T20:29:28.418Z,5.59
2022-12-15T20:31:58.102Z,5.55
2022-12-15T20:34:26.150Z,5.83
2022-12-15T20:36:53.876Z,6.14
2022-12-15T20:39:34.493Z,6.19
2022-12-15T20:42:02.916Z,6.12
2022-12-15T20:44:30.824Z,6.06
2022-12-15T20:46:58.614Z,6.15
2022-12-15T20:49:26.525Z,5.95
2022-12-15T20:52:01.864Z,5.88
2022-12-15T20:54:30.157Z,5.97
2022-12-15T20:56:57.803Z,5.66
2022-12-15T20:59:25.785Z,5.56
2022-12-15T21:01:53.589Z,5.56
2022-12-15T21:04:29.747Z,5.46
2022-12-15T21:06:57.623Z,5.47
2022-12-15T21:09:25.174Z,5.42
2022-12-15T21:11:55.129Z,5.23
2022-12-15T21:14:23.985Z,5.47
2022-12-15T21:16:51.636Z,5.52
2022-12-15T21:19:21.269Z,5.48
2022-12-15T21:21:55.294Z,5.52
2022-12-15T21:24:26.975Z,5.57
2022-12-15T21:26:55.195Z,5.75
2022-12-15T21:29:25.346Z,5.88
2022-12-15T21:31:53.178Z,5.79
2022-12-15T21:34:20.645Z,5.86
2022-12-15T21:36:52.608Z,5.93
2022-12-15T21:39:26.019Z,5.95
2022-12-15T21:41:55.112Z,6.02
2022-12-15T21:44:22.714Z,6.02
2022-12-15T21:46:50.302Z,6.08
2022-12-15T21:49:19.351Z,6.13
2022-12-15T21:51:56.427Z,6.28
2022-12-15T21:54:35.208Z,6.48
2022-12-15T21:57:03.134Z,6.51
2022-12-15T21:59:32.399Z,6.55
2022-12-15T22:02:00.922Z,6.41
2022-12-15T22:04:33.286Z,5.80
2022-12-15T22:07:01.177Z,6.12
2022-12-15T22:09:28.751Z,6.47
2022-12-15T22:11:56.887Z,6.56
2022-12-15T22:14:28.174Z,6.67
2022-12-15T22:16:56.271Z,6.51
2022-12-15T22:19:24.221Z,6.70
2022-12-15T22:21:52.077Z,6.41
2022-12-15T22:24:20.555Z,5.88
2022-12-15T22:26:49.525Z,6.13
2022-12-15T22:29:19.925Z,6.39
2022-12-15T22:31:53.334Z,6.56
2022-12-15T22:34:26.458Z,6.36
2022-12-15T22:36:55.000Z,6.35
2022-12-15T22:39:22.770Z,6.48
2022-12-15T22:41:52.326Z,6.37
2022-12-15T22:44:25.523Z,6.36
2022-12-15T22:46:56.747Z,6.41
2022-12-15T22:49:37.764Z,6.50
2022-12-15T22:53:22.820Z,6.77
2022-12-15T23:05:37.066Z,6.37
2022-12-15T23:08:16.499Z,6.30
2022-12-15T23:15:04.004Z,6.38
2022-12-15T23:17:38.641Z,6.49
2022-12-15T23:20:06.847Z,6.29
2022-12-15T23:22:35.063Z,6.33
2022-12-15T23:25:05.015Z,6.42
2022-12-15T23:27:33.910Z,6.49
2022-12-15T23:30:02.476Z,6.63
2022-12-15T23:32:30.596Z,6.55
2022-12-15T23:34:58.750Z,6.42
2022-12-15T23:37:26.621Z,6.56
2022-12-15T23:39:56.808Z,6.18
2022-12-15T23:42:25.946Z,6.11
2022-12-15T23:44:59.074Z,6.06
2022-12-15T23:47:27.332Z,6.29
2022-12-15T23:49:58.712Z,6.04
2022-12-15T23:52:29.027Z,6.32
2022-12-15T23:54:56.868Z,6.39
2022-12-15T23:57:25.901Z,6.21
2022-12-15T23:59:53.513Z,6.47
